sensor_id;sensor_type;location;lat;lon;timestamp;P1;durP1;ratioP1;P2;durP2;ratioP2
40945;SDS011;55635;50.264;11.918;2023-04-25T00:01:49;12.52;;;8.65;;
40945;SDS011;55635;50.264;11.918;2023-04-25T00:04:31;16.52;;;9.32;;
40945;SDS011;55635;50.264;11.918;2023-04-25T00:07:16;13.13;;;9.40;;
40945;SDS011;55635;50.264;11.918;2023-04-25T00:09:56;12.38;;;8.70;;
40945;SDS011;55635;50.264;11.918;2023-04-25T00:12:38;14.65;;;9.82;;
40945;SDS011;55635;50.264;11.918;2023-04-25T00:15:20;11.90;;;8.90;;
40945;SDS011;55635;50.264;11.918;2023-04-25T00:18:01;15.20;;;9.45;;
40945;SDS011;55635;50.264;11.918;2023-04-25T00:20:42;13.25;;;9.02;;
40945;SDS011;55635;50.264;11.918;2023-04-25T00:23:26;13.43;;;9.35;;
40945;SDS011;55635;50.264;11.918;2023-04-25T00:26:07;14.60;;;9.10;;
40945;SDS011;55635;50.264;11.918;2023-04-25T00:28:48;12.45;;;8.75;;
40945;SDS011;55635;50.264;11.918;2023-04-25T00:31:29;12.00;;;8.98;;
40945;SDS011;55635;50.264;11.918;2023-04-25T00:34:12;16.17;;;8.73;;
40945;SDS011;55635;50.264;11.918;2023-04-25T00:36:53;15.50;;;9.35;;
40945;SDS011;55635;50.264;11.918;2023-04-25T00:39:34;12.13;;;9.63;;
40945;SDS011;55635;50.264;11.918;2023-04-25T00:42:15;12.52;;;9.80;;
40945;SDS011;55635;50.264;11.918;2023-04-25T00:44:56;12.70;;;9.32;;
40945;SDS011;55635;50.264;11.918;2023-04-25T00:47:39;11.95;;;9.15;;
40945;SDS011;55635;50.264;11.918;2023-04-25T00:50:20;15.13;;;9.68;;
40945;SDS011;55635;50.264;11.918;2023-04-25T00:53:02;13.57;;;9.25;;
40945;SDS011;55635;50.264;11.918;2023-04-25T00:55:45;14.23;;;9.43;;
40945;SDS011;55635;50.264;11.918;2023-04-25T00:58:26;12.18;;;9.30;;
40945;SDS011;55635;50.264;11.918;2023-04-25T01:01:07;13.38;;;9.52;;
40945;SDS011;55635;50.264;11.918;2023-04-25T01:03:49;10.82;;;9.15;;
40945;SDS011;55635;50.264;11.918;2023-04-25T01:06:31;15.95;;;9.88;;
40945;SDS011;55635;50.264;11.918;2023-04-25T01:09:13;11.98;;;9.13;;
40945;SDS011;55635;50.264;11.918;2023-04-25T01:11:54;12.70;;;9.70;;
40945;SDS011;55635;50.264;11.918;2023-04-25T01:14:35;11.32;;;8.90;;
40945;SDS011;55635;50.264;11.918;2023-04-25T01:17:19;14.32;;;8.95;;
40945;SDS011;55635;50.264;11.918;2023-04-25T01:20:04;12.65;;;9.23;;
40945;SDS011;55635;50.264;11.918;2023-04-25T01:22:47;15.27;;;9.70;;
40945;SDS011;55635;50.264;11.918;2023-04-25T01:25:30;12.80;;;9.73;;
40945;SDS011;55635;50.264;11.918;2023-04-25T01:28:11;13.77;;;9.35;;
40945;SDS011;55635;50.264;11.918;2023-04-25T01:30:53;13.65;;;9.55;;
40945;SDS011;55635;50.264;11.918;2023-04-25T01:33:35;14.45;;;8.82;;
40945;SDS011;55635;50.264;11.918;2023-04-25T01:36:16;11.60;;;8.98;;
40945;SDS011;55635;50.264;11.918;2023-04-25T01:38:58;13.40;;;9.38;;
40945;SDS011;55635;50.264;11.918;2023-04-25T01:41:40;15.25;;;9.13;;
40945;SDS011;55635;50.264;11.918;2023-04-25T01:44:27;14.55;;;9.45;;
40945;SDS011;55635;50.264;11.918;2023-04-25T01:47:08;13.27;;;10.05;;
40945;SDS011;55635;50.264;11.918;2023-04-25T01:49:49;13.27;;;9.63;;
40945;SDS011;55635;50.264;11.918;2023-04-25T01:52:30;14.48;;;10.30;;
40945;SDS011;55635;50.264;11.918;2023-04-25T01:55:12;15.57;;;9.40;;
40945;SDS011;55635;50.264;11.918;2023-04-25T01:58:00;13.75;;;9.73;;
40945;SDS011;55635;50.264;11.918;2023-04-25T02:01:03;12.23;;;9.32;;
40945;SDS011;55635;50.264;11.918;2023-04-25T02:03:51;13.95;;;10.30;;
40945;SDS011;55635;50.264;11.918;2023-04-25T02:06:43;15.23;;;9.98;;
40945;SDS011;55635;50.264;11.918;2023-04-25T02:09:24;18.98;;;9.75;;
40945;SDS011;55635;50.264;11.918;2023-04-25T02:12:11;13.70;;;10.20;;
40945;SDS011;55635;50.264;11.918;2023-04-25T02:15:09;12.23;;;9.38;;
40945;SDS011;55635;50.264;11.918;2023-04-25T02:18:02;16.00;;;9.73;;
40945;SDS011;55635;50.264;11.918;2023-04-25T02:20:44;13.02;;;9.80;;
40945;SDS011;55635;50.264;11.918;2023-04-25T02:23:50;12.88;;;9.93;;
40945;SDS011;55635;50.264;11.918;2023-04-25T02:26:32;14.75;;;9.27;;
40945;SDS011;55635;50.264;11.918;2023-04-25T02:29:14;15.10;;;9.73;;
40945;SDS011;55635;50.264;11.918;2023-04-25T02:31:56;13.30;;;9.43;;
40945;SDS011;55635;50.264;11.918;2023-04-25T02:34:40;14.32;;;10.95;;
40945;SDS011;55635;50.264;11.918;2023-04-25T02:37:21;16.52;;;9.95;;
40945;SDS011;55635;50.264;11.918;2023-04-25T02:40:02;15.40;;;9.38;;
40945;SDS011;55635;50.264;11.918;2023-04-25T02:42:45;12.70;;;9.23;;
40945;SDS011;55635;50.264;11.918;2023-04-25T02:45:26;12.77;;;9.73;;
40945;SDS011;55635;50.264;11.918;2023-04-25T02:48:07;18.77;;;10.93;;
40945;SDS011;55635;50.264;11.918;2023-04-25T02:50:50;12.02;;;9.10;;
40945;SDS011;55635;50.264;11.918;2023-04-25T02:53:31;11.93;;;8.98;;
40945;SDS011;55635;50.264;11.918;2023-04-25T02:56:12;11.90;;;8.82;;
40945;SDS011;55635;50.264;11.918;2023-04-25T02:58:53;11.02;;;9.00;;
40945;SDS011;55635;50.264;11.918;2023-04-25T03:01:34;12.40;;;8.77;;
40945;SDS011;55635;50.264;11.918;2023-04-25T03:04:15;14.05;;;10.20;;
40945;SDS011;55635;50.264;11.918;2023-04-25T03:06:56;14.07;;;9.95;;
40945;SDS011;55635;50.264;11.918;2023-04-25T03:09:39;12.32;;;9.20;;
40945;SDS011;55635;50.264;11.918;2023-04-25T03:12:20;12.00;;;9.20;;
40945;SDS011;55635;50.264;11.918;2023-04-25T03:15:03;16.20;;;10.05;;
40945;SDS011;55635;50.264;11.918;2023-04-25T03:17:44;10.73;;;8.48;;
40945;SDS011;55635;50.264;11.918;2023-04-25T03:20:25;14.80;;;9.90;;
40945;SDS011;55635;50.264;11.918;2023-04-25T03:23:07;16.67;;;9.68;;
40945;SDS011;55635;50.264;11.918;2023-04-25T03:25:48;16.23;;;10.18;;
40945;SDS011;55635;50.264;11.918;2023-04-25T03:28:29;14.48;;;9.77;;
40945;SDS011;55635;50.264;11.918;2023-04-25T03:31:11;13.95;;;9.43;;
40945;SDS011;55635;50.264;11.918;2023-04-25T03:33:52;15.52;;;10.10;;
40945;SDS011;55635;50.264;11.918;2023-04-25T03:36:35;14.20;;;10.32;;
40945;SDS011;55635;50.264;11.918;2023-04-25T03:39:16;13.60;;;9.80;;
40945;SDS011;55635;50.264;11.918;2023-04-25T03:42:01;12.40;;;9.52;;
40945;SDS011;55635;50.264;11.918;2023-04-25T03:44:43;15.55;;;10.30;;
40945;SDS011;55635;50.264;11.918;2023-04-25T03:47:25;17.17;;;10.68;;
40945;SDS011;55635;50.264;11.918;2023-04-25T03:50:07;17.10;;;11.20;;
40945;SDS011;55635;50.264;11.918;2023-04-25T03:52:48;13.35;;;10.20;;
40945;SDS011;55635;50.264;11.918;2023-04-25T03:55:55;18.13;;;11.65;;
40945;SDS011;55635;50.264;11.918;2023-04-25T03:58:38;19.65;;;11.55;;
40945;SDS011;55635;50.264;11.918;2023-04-25T04:01:20;17.60;;;11.43;;
40945;SDS011;55635;50.264;11.918;2023-04-25T04:04:01;15.63;;;10.98;;
40945;SDS011;55635;50.264;11.918;2023-04-25T04:06:43;17.77;;;11.02;;
40945;SDS011;55635;50.264;11.918;2023-04-25T04:09:32;17.02;;;11.63;;
40945;SDS011;55635;50.264;11.918;2023-04-25T04:12:17;16.25;;;11.25;;
40945;SDS011;55635;50.264;11.918;2023-04-25T04:15:01;17.42;;;11.15;;
40945;SDS011;55635;50.264;11.918;2023-04-25T04:17:47;16.48;;;11.73;;
40945;SDS011;55635;50.264;11.918;2023-04-25T04:20:29;17.27;;;11.85;;
40945;SDS011;55635;50.264;11.918;2023-04-25T04:23:13;17.73;;;12.93;;
40945;SDS011;55635;50.264;11.918;2023-04-25T04:25:58;16.92;;;12.35;;
40945;SDS011;55635;50.264;11.918;2023-04-25T04:28:39;18.70;;;12.18;;
40945;SDS011;55635;50.264;11.918;2023-04-25T04:31:46;16.77;;;12.43;;
40945;SDS011;55635;50.264;11.918;2023-04-25T04:34:29;20.55;;;12.23;;
40945;SDS011;55635;50.264;11.918;2023-04-25T04:37:14;16.75;;;12.18;;
40945;SDS011;55635;50.264;11.918;2023-04-25T04:39:56;19.55;;;12.98;;
40945;SDS011;55635;50.264;11.918;2023-04-25T04:42:43;18.05;;;12.73;;
40945;SDS011;55635;50.264;11.918;2023-04-25T04:45:40;21.55;;;13.27;;
40945;SDS011;55635;50.264;11.918;2023-04-25T04:48:28;22.67;;;13.30;;
40945;SDS011;55635;50.264;11.918;2023-04-25T04:51:31;9.40;;;6.88;;
40945;SDS011;55635;50.264;11.918;2023-04-25T04:54:29;6.15;;;5.50;;
40945;SDS011;55635;50.264;11.918;2023-04-25T04:57:31;8.77;;;5.05;;
40945;SDS011;55635;50.264;11.918;2023-04-25T05:00:28;6.28;;;5.50;;
40945;SDS011;55635;50.264;11.918;2023-04-25T05:03:41;7.45;;;5.90;;
40945;SDS011;55635;50.264;11.918;2023-04-25T05:06:52;7.85;;;5.68;;
40945;SDS011;55635;50.264;11.918;2023-04-25T05:09:45;8.52;;;6.57;;
40945;SDS011;55635;50.264;11.918;2023-04-25T05:12:45;9.85;;;6.70;;
40945;SDS011;55635;50.264;11.918;2023-04-25T05:15:35;8.75;;;6.28;;
40945;SDS011;55635;50.264;11.918;2023-04-25T05:18:39;8.18;;;6.75;;
40945;SDS011;55635;50.264;11.918;2023-04-25T05:21:36;9.95;;;6.82;;
40945;SDS011;55635;50.264;11.918;2023-04-25T05:27:36;9.32;;;6.55;;
40945;SDS011;55635;50.264;11.918;2023-04-25T05:30:47;10.50;;;7.32;;
40945;SDS011;55635;50.264;11.918;2023-04-25T05:33:33;9.70;;;7.25;;
40945;SDS011;55635;50.264;11.918;2023-04-25T05:36:18;8.23;;;7.00;;
40945;SDS011;55635;50.264;11.918;2023-04-25T05:39:00;10.65;;;7.20;;
40945;SDS011;55635;50.264;11.918;2023-04-25T05:42:01;7.30;;;6.40;;
40945;SDS011;55635;50.264;11.918;2023-04-25T05:45:02;7.25;;;6.22;;
40945;SDS011;55635;50.264;11.918;2023-04-25T05:47:55;10.45;;;7.07;;
40945;SDS011;55635;50.264;11.918;2023-04-25T05:50:59;9.05;;;6.60;;
40945;SDS011;55635;50.264;11.918;2023-04-25T05:53:55;7.47;;;6.13;;
40945;SDS011;55635;50.264;11.918;2023-04-25T05:56:37;8.75;;;6.80;;
40945;SDS011;55635;50.264;11.918;2023-04-25T05:59:18;6.07;;;5.47;;
40945;SDS011;55635;50.264;11.918;2023-04-25T06:02:00;7.15;;;5.82;;
40945;SDS011;55635;50.264;11.918;2023-04-25T06:04:43;6.97;;;5.30;;
40945;SDS011;55635;50.264;11.918;2023-04-25T06:07:29;8.30;;;6.70;;
40945;SDS011;55635;50.264;11.918;2023-04-25T06:10:12;7.10;;;5.90;;
40945;SDS011;55635;50.264;11.918;2023-04-25T06:12:53;7.38;;;6.35;;
40945;SDS011;55635;50.264;11.918;2023-04-25T06:15:36;7.82;;;6.57;;
40945;SDS011;55635;50.264;11.918;2023-04-25T06:18:18;6.75;;;6.10;;
40945;SDS011;55635;50.264;11.918;2023-04-25T06:20:59;7.43;;;5.28;;
40945;SDS011;55635;50.264;11.918;2023-04-25T06:23:40;6.03;;;5.43;;
40945;SDS011;55635;50.264;11.918;2023-04-25T06:26:25;7.63;;;5.25;;
40945;SDS011;55635;50.264;11.918;2023-04-25T06:29:06;5.68;;;5.07;;
40945;SDS011;55635;50.264;11.918;2023-04-25T06:31:48;5.55;;;5.05;;
40945;SDS011;55635;50.264;11.918;2023-04-25T06:34:30;5.50;;;4.90;;
40945;SDS011;55635;50.264;11.918;2023-04-25T06:37:11;6.05;;;5.40;;
40945;SDS011;55635;50.264;11.918;2023-04-25T06:39:52;4.68;;;4.20;;
40945;SDS011;55635;50.264;11.918;2023-04-25T06:42:33;5.15;;;4.65;;
40945;SDS011;55635;50.264;11.918;2023-04-25T06:45:34;5.65;;;4.70;;
40945;SDS011;55635;50.264;11.918;2023-04-25T06:48:15;5.05;;;4.60;;
40945;SDS011;55635;50.264;11.918;2023-04-25T06:50:58;5.28;;;4.78;;
40945;SDS011;55635;50.264;11.918;2023-04-25T06:53:40;5.45;;;4.65;;
40945;SDS011;55635;50.264;11.918;2023-04-25T06:56:33;5.35;;;4.63;;
40945;SDS011;55635;50.264;11.918;2023-04-25T06:59:22;7.35;;;5.30;;
40945;SDS011;55635;50.264;11.918;2023-04-25T07:02:05;4.97;;;4.55;;
40945;SDS011;55635;50.264;11.918;2023-04-25T07:04:47;5.95;;;5.35;;
40945;SDS011;55635;50.264;11.918;2023-04-25T07:07:28;5.93;;;5.32;;
40945;SDS011;55635;50.264;11.918;2023-04-25T07:10:17;6.18;;;5.15;;
40945;SDS011;55635;50.264;11.918;2023-04-25T07:12:58;6.50;;;4.72;;
40945;SDS011;55635;50.264;11.918;2023-04-25T07:15:39;5.78;;;4.93;;
40945;SDS011;55635;50.264;11.918;2023-04-25T07:18:20;5.53;;;5.03;;
40945;SDS011;55635;50.264;11.918;2023-04-25T07:21:01;6.05;;;5.18;;
40945;SDS011;55635;50.264;11.918;2023-04-25T07:23:45;5.28;;;4.78;;
40945;SDS011;55635;50.264;11.918;2023-04-25T07:26:30;6.55;;;5.82;;
40945;SDS011;55635;50.264;11.918;2023-04-25T07:29:38;6.72;;;5.18;;
40945;SDS011;55635;50.264;11.918;2023-04-25T07:32:19;5.22;;;4.43;;
40945;SDS011;55635;50.264;11.918;2023-04-25T07:35:00;5.03;;;4.45;;
40945;SDS011;55635;50.264;11.918;2023-04-25T07:37:44;5.72;;;4.97;;
40945;SDS011;55635;50.264;11.918;2023-04-25T07:40:29;5.50;;;4.63;;
40945;SDS011;55635;50.264;11.918;2023-04-25T07:43:18;6.25;;;4.63;;
40945;SDS011;55635;50.264;11.918;2023-04-25T07:46:06;5.50;;;4.47;;
40945;SDS011;55635;50.264;11.918;2023-04-25T07:48:49;7.60;;;4.80;;
40945;SDS011;55635;50.264;11.918;2023-04-25T07:51:29;7.38;;;5.85;;
40945;SDS011;55635;50.264;11.918;2023-04-25T07:54:16;6.35;;;4.88;;
40945;SDS011;55635;50.264;11.918;2023-04-25T07:57:02;6.95;;;4.93;;
40945;SDS011;55635;50.264;11.918;2023-04-25T07:59:44;5.72;;;4.72;;
40945;SDS011;55635;50.264;11.918;2023-04-25T08:02:26;6.80;;;4.25;;
40945;SDS011;55635;50.264;11.918;2023-04-25T08:05:08;5.18;;;4.22;;
40945;SDS011;55635;50.264;11.918;2023-04-25T08:07:54;6.38;;;4.70;;
40945;SDS011;55635;50.264;11.918;2023-04-25T08:10:36;6.95;;;4.15;;
40945;SDS011;55635;50.264;11.918;2023-04-25T08:13:19;4.40;;;4.00;;
40945;SDS011;55635;50.264;11.918;2023-04-25T08:16:00;10.88;;;4.35;;
40945;SDS011;55635;50.264;11.918;2023-04-25T08:18:41;6.97;;;4.43;;
40945;SDS011;55635;50.264;11.918;2023-04-25T08:21:23;7.55;;;4.45;;
40945;SDS011;55635;50.264;11.918;2023-04-25T08:24:06;4.25;;;3.85;;
40945;SDS011;55635;50.264;11.918;2023-04-25T08:26:50;4.13;;;3.70;;
40945;SDS011;55635;50.264;11.918;2023-04-25T08:29:36;6.85;;;4.03;;
40945;SDS011;55635;50.264;11.918;2023-04-25T08:32:18;5.50;;;4.00;;
40945;SDS011;55635;50.264;11.918;2023-04-25T08:35:14;5.25;;;3.67;;
40945;SDS011;55635;50.264;11.918;2023-04-25T08:37:56;7.93;;;4.00;;
40945;SDS011;55635;50.264;11.918;2023-04-25T08:40:39;6.47;;;3.78;;
40945;SDS011;55635;50.264;11.918;2023-04-25T08:43:30;6.05;;;3.67;;
40945;SDS011;55635;50.264;11.918;2023-04-25T08:46:13;4.18;;;3.17;;
40945;SDS011;55635;50.264;11.918;2023-04-25T08:49:10;6.13;;;3.75;;
40945;SDS011;55635;50.264;11.918;2023-04-25T08:51:52;7.93;;;3.88;;
40945;SDS011;55635;50.264;11.918;2023-04-25T08:54:41;6.78;;;4.18;;
40945;SDS011;55635;50.264;11.918;2023-04-25T08:57:27;5.07;;;4.10;;
40945;SDS011;55635;50.264;11.918;2023-04-25T09:00:10;3.97;;;3.38;;
40945;SDS011;55635;50.264;11.918;2023-04-25T09:02:56;5.10;;;3.50;;
40945;SDS011;55635;50.264;11.918;2023-04-25T09:05:43;5.35;;;3.47;;
40945;SDS011;55635;50.264;11.918;2023-04-25T09:08:25;5.53;;;3.40;;
40945;SDS011;55635;50.264;11.918;2023-04-25T09:11:06;3.38;;;3.00;;
40945;SDS011;55635;50.264;11.918;2023-04-25T09:13:47;6.13;;;2.97;;
40945;SDS011;55635;50.264;11.918;2023-04-25T09:23:03;4.35;;;3.80;;
40945;SDS011;55635;50.264;11.918;2023-04-25T09:25:48;8.68;;;3.80;;
40945;SDS011;55635;50.264;11.918;2023-04-25T09:28:31;5.35;;;4.32;;
40945;SDS011;55635;50.264;11.918;2023-04-25T09:31:24;4.00;;;3.53;;
40945;SDS011;55635;50.264;11.918;2023-04-25T09:34:06;6.80;;;3.72;;
40945;SDS011;55635;50.264;11.918;2023-04-25T09:36:56;7.47;;;3.83;;
40945;SDS011;55635;50.264;11.918;2023-04-25T09:40:05;6.50;;;4.15;;
40945;SDS011;55635;50.264;11.918;2023-04-25T09:42:53;5.70;;;4.15;;
40945;SDS011;55635;50.264;11.918;2023-04-25T09:45:40;5.65;;;4.00;;
40945;SDS011;55635;50.264;11.918;2023-04-25T09:48:29;6.28;;;3.85;;
40945;SDS011;55635;50.264;11.918;2023-04-25T09:51:13;5.20;;;3.45;;
40945;SDS011;55635;50.264;11.918;2023-04-25T09:53:56;6.75;;;3.15;;
40945;SDS011;55635;50.264;11.918;2023-04-25T09:56:45;5.60;;;3.33;;
40945;SDS011;55635;50.264;11.918;2023-04-25T09:59:32;5.70;;;2.97;;
40945;SDS011;55635;50.264;11.918;2023-04-25T10:02:19;5.50;;;3.50;;
40945;SDS011;55635;50.264;11.918;2023-04-25T10:05:05;4.25;;;3.25;;
40945;SDS011;55635;50.264;11.918;2023-04-25T10:07:52;3.63;;;3.05;;
40945;SDS011;55635;50.264;11.918;2023-04-25T10:10:34;4.78;;;3.00;;
40945;SDS011;55635;50.264;11.918;2023-04-25T10:13:17;7.47;;;2.45;;
40945;SDS011;55635;50.264;11.918;2023-04-25T10:16:01;5.95;;;2.80;;
40945;SDS011;55635;50.264;11.918;2023-04-25T10:18:44;6.30;;;3.10;;
40945;SDS011;55635;50.264;11.918;2023-04-25T10:21:25;3.83;;;2.67;;
40945;SDS011;55635;50.264;11.918;2023-04-25T10:24:11;7.43;;;3.60;;
40945;SDS011;55635;50.264;11.918;2023-04-25T10:26:53;3.97;;;2.58;;
40945;SDS011;55635;50.264;11.918;2023-04-25T10:29:36;5.47;;;2.47;;
40945;SDS011;55635;50.264;11.918;2023-04-25T10:32:17;3.70;;;2.50;;
40945;SDS011;55635;50.264;11.918;2023-04-25T10:35:06;3.70;;;2.58;;
40945;SDS011;55635;50.264;11.918;2023-04-25T10:38:13;3.10;;;2.00;;
40945;SDS011;55635;50.264;11.918;2023-04-25T10:41:07;2.40;;;2.20;;
40945;SDS011;55635;50.264;11.918;2023-04-25T10:43:50;10.23;;;2.72;;
40945;SDS011;55635;50.264;11.918;2023-04-25T10:46:45;5.30;;;2.22;;
40945;SDS011;55635;50.264;11.918;2023-04-25T10:49:33;2.50;;;2.20;;
40945;SDS011;55635;50.264;11.918;2023-04-25T10:52:25;4.78;;;2.50;;
40945;SDS011;55635;50.264;11.918;2023-04-25T10:55:10;3.22;;;2.50;;
40945;SDS011;55635;50.264;11.918;2023-04-25T10:57:53;4.10;;;2.28;;
40945;SDS011;55635;50.264;11.918;2023-04-25T11:00:34;3.30;;;2.50;;
40945;SDS011;55635;50.264;11.918;2023-04-25T11:03:21;2.47;;;2.28;;
40945;SDS011;55635;50.264;11.918;2023-04-25T11:06:05;2.03;;;1.67;;
40945;SDS011;55635;50.264;11.918;2023-04-25T11:09:02;4.20;;;1.98;;
40945;SDS011;55635;50.264;11.918;2023-04-25T11:11:57;2.00;;;1.77;;
40945;SDS011;55635;50.264;11.918;2023-04-25T11:14:40;5.05;;;2.03;;
40945;SDS011;55635;50.264;11.918;2023-04-25T11:17:20;2.97;;;2.03;;
40945;SDS011;55635;50.264;11.918;2023-04-25T11:20:07;3.08;;;2.50;;
40945;SDS011;55635;50.264;11.918;2023-04-25T11:22:51;2.20;;;2.00;;
40945;SDS011;55635;50.264;11.918;2023-04-25T11:25:32;2.83;;;2.20;;
40945;SDS011;55635;50.264;11.918;2023-04-25T11:28:20;3.95;;;2.00;;
40945;SDS011;55635;50.264;11.918;2023-04-25T11:31:05;2.05;;;1.90;;
40945;SDS011;55635;50.264;11.918;2023-04-25T11:33:46;2.30;;;1.80;;
40945;SDS011;55635;50.264;11.918;2023-04-25T11:36:27;4.75;;;2.10;;
40945;SDS011;55635;50.264;11.918;2023-04-25T11:39:09;3.28;;;2.00;;
40945;SDS011;55635;50.264;11.918;2023-04-25T11:41:50;2.63;;;2.35;;
40945;SDS011;55635;50.264;11.918;2023-04-25T11:44:34;3.20;;;2.35;;
40945;SDS011;55635;50.264;11.918;2023-04-25T11:47:15;2.78;;;2.20;;
40945;SDS011;55635;50.264;11.918;2023-04-25T11:49:57;2.60;;;2.40;;
40945;SDS011;55635;50.264;11.918;2023-04-25T11:52:52;3.72;;;2.33;;
40945;SDS011;55635;50.264;11.918;2023-04-25T11:55:39;3.55;;;2.10;;
40945;SDS011;55635;50.264;11.918;2023-04-25T11:58:20;2.60;;;2.40;;
40945;SDS011;55635;50.264;11.918;2023-04-25T12:01:02;3.95;;;2.30;;
40945;SDS011;55635;50.264;11.918;2023-04-25T12:03:47;2.60;;;2.40;;
40945;SDS011;55635;50.264;11.918;2023-04-25T12:06:28;2.45;;;2.25;;
40945;SDS011;55635;50.264;11.918;2023-04-25T12:09:11;3.30;;;2.00;;
40945;SDS011;55635;50.264;11.918;2023-04-25T12:11:54;3.45;;;2.13;;
40945;SDS011;55635;50.264;11.918;2023-04-25T12:14:41;1.70;;;1.60;;
40945;SDS011;55635;50.264;11.918;2023-04-25T12:20:16;2.30;;;2.10;;
40945;SDS011;55635;50.264;11.918;2023-04-25T12:23:05;3.38;;;2.88;;
40945;SDS011;55635;50.264;11.918;2023-04-25T12:25:47;3.38;;;2.40;;
40945;SDS011;55635;50.264;11.918;2023-04-25T12:28:28;2.50;;;2.30;;
40945;SDS011;55635;50.264;11.918;2023-04-25T12:31:13;2.33;;;2.22;;
40945;SDS011;55635;50.264;11.918;2023-04-25T12:33:57;2.60;;;2.38;;
40945;SDS011;55635;50.264;11.918;2023-04-25T12:36:38;2.58;;;2.00;;
40945;SDS011;55635;50.264;11.918;2023-04-25T12:39:20;2.47;;;2.28;;
40945;SDS011;55635;50.264;11.918;2023-04-25T12:42:05;1.83;;;1.73;;
40945;SDS011;55635;50.264;11.918;2023-04-25T12:44:47;2.65;;;2.10;;
40945;SDS011;55635;50.264;11.918;2023-04-25T12:47:28;2.72;;;2.50;;
40945;SDS011;55635;50.264;11.918;2023-04-25T12:50:34;3.83;;;2.33;;
40945;SDS011;55635;50.264;11.918;2023-04-25T12:53:19;3.00;;;2.75;;
40945;SDS011;55635;50.264;11.918;2023-04-25T12:56:07;3.33;;;2.63;;
40945;SDS011;55635;50.264;11.918;2023-04-25T12:58:51;3.03;;;2.83;;
40945;SDS011;55635;50.264;11.918;2023-04-25T13:01:32;2.88;;;2.67;;
40945;SDS011;55635;50.264;11.918;2023-04-25T13:04:13;2.40;;;1.33;;
40945;SDS011;55635;50.264;11.918;2023-04-25T13:06:54;2.40;;;1.33;;
40945;SDS011;55635;50.264;11.918;2023-04-25T13:09:35;0.90;;;0.90;;
40945;SDS011;55635;50.264;11.918;2023-04-25T13:12:16;0.80;;;0.80;;
40945;SDS011;55635;50.264;11.918;2023-04-25T13:14:56;2.13;;;0.98;;
40945;SDS011;55635;50.264;11.918;2023-04-25T13:17:38;1.23;;;1.13;;
40945;SDS011;55635;50.264;11.918;2023-04-25T13:20:19;1.35;;;0.93;;
40945;SDS011;55635;50.264;11.918;2023-04-25T13:23:02;1.75;;;1.40;;
40945;SDS011;55635;50.264;11.918;2023-04-25T13:25:43;1.73;;;1.40;;
40945;SDS011;55635;50.264;11.918;2023-04-25T13:28:24;6.75;;;2.00;;
40945;SDS011;55635;50.264;11.918;2023-04-25T13:31:05;1.58;;;1.35;;
40945;SDS011;55635;50.264;11.918;2023-04-25T13:33:46;3.17;;;1.40;;
40945;SDS011;55635;50.264;11.918;2023-04-25T13:36:28;1.42;;;1.33;;
40945;SDS011;55635;50.264;11.918;2023-04-25T13:39:09;1.50;;;1.40;;
40945;SDS011;55635;50.264;11.918;2023-04-25T13:41:51;3.67;;;1.75;;
40945;SDS011;55635;50.264;11.918;2023-04-25T13:44:32;2.78;;;2.05;;
40945;SDS011;55635;50.264;11.918;2023-04-25T13:47:12;4.80;;;2.72;;
40945;SDS011;55635;50.264;11.918;2023-04-25T13:49:53;2.70;;;1.95;;
40945;SDS011;55635;50.264;11.918;2023-04-25T13:52:37;2.78;;;2.08;;
40945;SDS011;55635;50.264;11.918;2023-04-25T13:55:18;4.32;;;2.17;;
40945;SDS011;55635;50.264;11.918;2023-04-25T13:57:59;2.47;;;2.20;;
40945;SDS011;55635;50.264;11.918;2023-04-25T14:00:39;3.03;;;2.08;;
40945;SDS011;55635;50.264;11.918;2023-04-25T14:03:23;2.88;;;2.22;;
40945;SDS011;55635;50.264;11.918;2023-04-25T14:06:05;3.38;;;1.88;;
40945;SDS011;55635;50.264;11.918;2023-04-25T14:08:46;4.40;;;2.35;;
40945;SDS011;55635;50.264;11.918;2023-04-25T14:11:27;2.35;;;2.15;;
40945;SDS011;55635;50.264;11.918;2023-04-25T14:14:09;4.97;;;2.85;;
40945;SDS011;55635;50.264;11.918;2023-04-25T14:16:50;7.10;;;3.45;;
40945;SDS011;55635;50.264;11.918;2023-04-25T14:19:34;5.78;;;5.05;;
40945;SDS011;55635;50.264;11.918;2023-04-25T14:22:15;5.25;;;4.47;;
40945;SDS011;55635;50.264;11.918;2023-04-25T14:24:56;35.20;;;19.58;;
40945;SDS011;55635;50.264;11.918;2023-04-25T14:27:38;14.30;;;8.82;;
40945;SDS011;55635;50.264;11.918;2023-04-25T14:30:21;27.90;;;14.38;;
40945;SDS011;55635;50.264;11.918;2023-04-25T14:33:02;15.35;;;8.02;;
40945;SDS011;55635;50.264;11.918;2023-04-25T14:35:43;32.90;;;16.00;;
40945;SDS011;55635;50.264;11.918;2023-04-25T14:38:24;46.40;;;21.38;;
40945;SDS011;55635;50.264;11.918;2023-04-25T14:41:05;8.30;;;4.20;;
40945;SDS011;55635;50.264;11.918;2023-04-25T14:43:46;40.30;;;19.77;;
40945;SDS011;55635;50.264;11.918;2023-04-25T14:46:29;49.90;;;23.45;;
40945;SDS011;55635;50.264;11.918;2023-04-25T14:49:10;49.70;;;24.02;;
40945;SDS011;55635;50.264;11.918;2023-04-25T14:51:51;34.08;;;18.42;;
40945;SDS011;55635;50.264;11.918;2023-04-25T14:54:32;47.08;;;23.65;;
40945;SDS011;55635;50.264;11.918;2023-04-25T14:57:13;62.70;;;30.77;;
40945;SDS011;55635;50.264;11.918;2023-04-25T14:59:55;65.30;;;35.35;;
40945;SDS011;55635;50.264;11.918;2023-04-25T15:02:36;16.10;;;8.73;;
40945;SDS011;55635;50.264;11.918;2023-04-25T15:05:18;25.33;;;17.35;;
40945;SDS011;55635;50.264;11.918;2023-04-25T15:08:00;9.27;;;6.75;;
40945;SDS011;55635;50.264;11.918;2023-04-25T15:10:42;10.15;;;6.50;;
40945;SDS011;55635;50.264;11.918;2023-04-25T15:13:26;12.75;;;7.70;;
40945;SDS011;55635;50.264;11.918;2023-04-25T15:16:07;10.00;;;7.55;;
40945;SDS011;55635;50.264;11.918;2023-04-25T15:18:50;8.27;;;3.83;;
40945;SDS011;55635;50.264;11.918;2023-04-25T15:21:31;7.43;;;3.92;;
40945;SDS011;55635;50.264;11.918;2023-04-25T15:24:12;6.00;;;3.60;;
40945;SDS011;55635;50.264;11.918;2023-04-25T15:26:55;10.57;;;4.05;;
40945;SDS011;55635;50.264;11.918;2023-04-25T15:29:36;8.20;;;4.22;;
40945;SDS011;55635;50.264;11.918;2023-04-25T15:32:17;9.20;;;3.50;;
40945;SDS011;55635;50.264;11.918;2023-04-25T15:34:58;7.93;;;2.90;;
40945;SDS011;55635;50.264;11.918;2023-04-25T15:38:04;9.85;;;3.58;;
40945;SDS011;55635;50.264;11.918;2023-04-25T15:41:11;7.40;;;3.20;;
40945;SDS011;55635;50.264;11.918;2023-04-25T15:43:52;7.50;;;3.38;;
40945;SDS011;55635;50.264;11.918;2023-04-25T15:46:33;14.65;;;7.03;;
40945;SDS011;55635;50.264;11.918;2023-04-25T15:49:14;9.05;;;3.50;;
40945;SDS011;55635;50.264;11.918;2023-04-25T15:51:55;5.88;;;3.47;;
40945;SDS011;55635;50.264;11.918;2023-04-25T15:54:36;9.98;;;4.32;;
40945;SDS011;55635;50.264;11.918;2023-04-25T15:57:18;8.65;;;3.58;;
40945;SDS011;55635;50.264;11.918;2023-04-25T16:00:03;8.95;;;2.78;;
40945;SDS011;55635;50.264;11.918;2023-04-25T16:02:51;6.65;;;2.63;;
40945;SDS011;55635;50.264;11.918;2023-04-25T16:05:32;12.15;;;3.38;;
40945;SDS011;55635;50.264;11.918;2023-04-25T16:08:13;5.80;;;2.60;;
40945;SDS011;55635;50.264;11.918;2023-04-25T16:10:54;6.43;;;2.65;;
40945;SDS011;55635;50.264;11.918;2023-04-25T16:13:37;8.65;;;3.25;;
40945;SDS011;55635;50.264;11.918;2023-04-25T16:16:18;15.65;;;3.53;;
40945;SDS011;55635;50.264;11.918;2023-04-25T16:18:59;9.32;;;2.95;;
40945;SDS011;55635;50.264;11.918;2023-04-25T16:21:40;8.00;;;2.95;;
40945;SDS011;55635;50.264;11.918;2023-04-25T16:24:22;7.70;;;3.10;;